Time;durP1;ratioP1;P1;durP2;ratioP2;P2;SDS_P1;SDS_P2;PMS_P1;PMS_P2;Temp;Humidity;BMP_temperature;BMP_pressure;BME280_temperature;BME280_humidity;BME280_pressure;Samples;Min_cycle;Max_cycle;Signal;HPM_P1;HPM_P2
2023/08/01 00:01:38;;;;;;;8.75;1.95;;;;;;;14.74;100.00;98970.47;5034217;28;20053;-67
2023/08/01 00:04:04;;;;;;;8.15;1.98;;;;;;;14.78;100.00;98986.84;5030942;28;20140;-66
2023/08/01 00:06:31;;;;;;;5.43;1.92;;;;;;;14.85;100.00;98979.28;5030576;28;20140;-67
2023/08/01 00:08:58;;;;;;;8.30;1.70;;;;;;;14.75;100.00;98977.41;5041545;28;20049;-67
2023/08/01 00:11:24;;;;;;;8.07;2.22;;;;;;;14.74;100.00;98985.44;5012019;28;20042;-67
2023/08/01 00:13:51;;;;;;;17.67;2.45;;;;;;;14.77;100.00;98988.66;5047576;28;20049;-67
2023/08/01 00:16:17;;;;;;;6.38;1.65;;;;;;;14.83;100.00;98984.69;5027112;28;20136;-67
2023/08/01 00:18:44;;;;;;;7.55;2.00;;;;;;;14.83;100.00;98983.84;5041542;28;20045;-67
2023/08/01 00:21:11;;;;;;;7.18;2.13;;;;;;;14.92;100.00;98996.25;5028104;28;20057;-67
2023/08/01 00:23:38;;;;;;;8.63;1.98;;;;;;;14.94;100.00;98994.31;5031766;28;20045;-67
2023/08/01 00:26:05;;;;;;;8.35;2.10;;;;;;;14.91;100.00;99002.47;5033204;28;20483;-66
2023/08/01 00:28:32;;;;;;;6.72;1.85;;;;;;;14.86;100.00;98978.34;5029882;28;20467;-66
2023/08/01 00:31:06;;;;;;;6.78;1.85;;;;;;;14.99;100.00;98992.97;5022932;28;20103;-67
2023/08/01 00:33:33;;;;;;;9.38;2.65;;;;;;;14.98;100.00;98993.94;5029839;28;20044;-67
2023/08/01 00:36:00;;;;;;;10.82;2.42;;;;;;;14.86;100.00;98994.97;5029170;28;20491;-66
2023/08/01 00:38:27;;;;;;;14.68;2.65;;;;;;;14.90;100.00;98998.19;5029607;28;20125;-66
2023/08/01 00:40:54;;;;;;;10.38;2.65;;;;;;;14.99;100.00;98992.97;5023802;28;20058;-67
2023/08/01 00:43:21;;;;;;;13.20;2.85;;;;;;;14.99;100.00;98994.78;5030124;28;20045;-67
2023/08/01 00:45:48;;;;;;;7.80;2.10;;;;;;;14.96;100.00;98987.97;5028981;28;20505;-67
2023/08/01 00:48:15;;;;;;;10.85;2.58;;;;;;;15.08;100.00;98991.34;5028641;28;20049;-67
2023/08/01 00:50:41;;;;;;;10.80;2.83;;;;;;;15.07;100.00;98986.22;5028247;28;20049;-67
2023/08/01 00:53:08;;;;;;;11.32;2.55;;;;;;;15.15;100.00;99002.22;5030083;28;20399;-66
2023/08/01 00:55:36;;;;;;;11.50;2.83;;;;;;;15.18;100.00;98992.25;5030491;28;20045;-66
2023/08/01 00:58:03;;;;;;;12.20;2.90;;;;;;;15.16;100.00;98988.91;5030233;28;20042;-66
2023/08/01 01:00:29;;;;;;;12.82;2.53;;;;;;;15.31;100.00;98997.31;5029578;28;20057;-67
2023/08/01 01:02:57;;;;;;;13.77;3.40;;;;;;;15.27;100.00;99001.19;5029274;28;20077;-66
2023/08/01 01:05:25;;;;;;;15.07;2.88;;;;;;;15.32;100.00;98999.00;5012359;28;20053;-66
2023/08/01 01:07:52;;;;;;;13.30;2.80;;;;;;;15.28;100.00;99015.19;5029653;28;20423;-67
2023/08/01 01:10:19;;;;;;;11.07;3.00;;;;;;;15.18;100.00;99001.97;5027174;28;20068;-66
2023/08/01 01:12:47;;;;;;;16.35;3.05;;;;;;;15.28;100.00;99007.28;5023810;28;20532;-66
2023/08/01 01:15:14;;;;;;;13.38;2.70;;;;;;;15.34;100.00;99012.06;5029038;28;20116;-67
2023/08/01 01:17:40;;;;;;;7.82;2.70;;;;;;;15.32;100.00;99011.38;5029463;28;20042;-66
2023/08/01 01:20:07;;;;;;;14.98;3.00;;;;;;;15.30;100.00;99015.94;5036576;28;20423;-66
2023/08/01 01:22:36;;;;;;;10.27;2.75;;;;;;;15.31;100.00;99021.06;5028455;28;20053;-66
2023/08/01 01:25:04;;;;;;;11.38;2.60;;;;;;;15.27;100.00;99009.09;5036068;28;20057;-66
2023/08/01 01:27:31;;;;;;;11.23;3.20;;;;;;;15.29;100.00;99025.63;5042414;28;20071;-67
2023/08/01 01:29:59;;;;;;;13.93;3.25;;;;;;;15.26;100.00;99022.41;5036085;28;20487;-67
2023/08/01 01:32:27;;;;;;;10.88;2.33;;;;;;;15.38;100.00;99024.00;5034235;28;20049;-66
2023/08/01 01:34:54;;;;;;;13.45;2.90;;;;;;;15.31;100.00;99018.41;5041716;28;20645;-67
2023/08/01 01:37:20;;;;;;;9.88;2.10;;;;;;;15.47;100.00;99019.75;5039802;28;20060;-67
2023/08/01 01:39:47;;;;;;;9.40;2.40;;;;;;;15.37;100.00;99025.81;5049756;28;20392;-67
2023/08/01 01:42:14;;;;;;;8.90;2.25;;;;;;;15.23;100.00;99004.22;5030282;28;20056;-66
2023/08/01 01:44:40;;;;;;;14.52;2.58;;;;;;;15.31;100.00;99026.31;5043762;28;20471;-67
2023/08/01 01:47:07;;;;;;;11.15;2.55;;;;;;;15.37;100.00;99028.47;5045480;28;20049;-67
2023/08/01 01:49:34;;;;;;;12.70;2.10;;;;;;;15.35;100.00;99027.75;5033407;28;20547;-67
2023/08/01 01:52:00;;;;;;;6.90;2.40;;;;;;;15.31;100.00;99028.97;5029565;28;20048;-67
2023/08/01 01:54:27;;;;;;;10.88;2.42;;;;;;;15.35;100.00;99029.53;5053767;28;20055;-67
2023/08/01 01:56:54;;;;;;;11.82;2.05;;;;;;;15.35;100.00;99030.41;5050120;28;20061;-67
2023/08/01 01:59:20;;;;;;;10.80;2.38;;;;;;;15.37;100.00;99033.72;5033271;28;20049;-67
2023/08/01 02:01:47;;;;;;;17.08;3.08;;;;;;;15.41;100.00;99038.75;5022249;28;20050;-67
2023/08/01 02:04:14;;;;;;;10.13;2.55;;;;;;;15.40;100.00;99026.53;5052191;28;20052;-67
2023/08/01 02:06:40;;;;;;;10.82;2.55;;;;;;;15.33;100.00;99027.06;5045978;28;20088;-66
2023/08/01 02:09:08;;;;;;;12.18;2.50;;;;;;;15.30;100.00;99024.66;5052983;28;20115;-67
2023/08/01 02:11:34;;;;;;;11.82;2.03;;;;;;;15.34;100.00;99022.59;5028783;28;20427;-67
2023/08/01 02:14:02;;;;;;;13.65;2.45;;;;;;;15.36;100.00;99023.31;5044147;28;20143;-67
2023/08/01 02:16:29;;;;;;;12.68;2.47;;;;;;;15.40;100.00;99021.25;5034241;28;20140;-67
2023/08/01 02:18:56;;;;;;;9.00;2.15;;;;;;;15.41;100.00;99022.94;5049381;28;20045;-67
2023/08/01 02:21:23;;;;;;;11.05;2.67;;;;;;;15.45;100.00;99033.06;5039522;28;20052;-66
2023/08/01 02:23:49;;;;;;;9.30;2.20;;;;;;;15.47;100.00;99033.78;5041645;28;20068;-66
2023/08/01 02:26:16;;;;;;;13.48;2.58;;;;;;;15.41;100.00;99022.94;5043878;28;20510;-66
2023/08/01 02:28:43;;;;;;;10.40;2.38;;;;;;;15.38;100.00;99030.13;5045896;28;20045;-67
2023/08/01 02:31:10;;;;;;;7.20;1.77;;;;;;;15.44;100.00;99036.69;5037075;28;20137;-66
2023/08/01 02:33:36;;;;;;;11.10;2.63;;;;;;;15.27;100.00;99014.38;5050371;28;20403;-66
2023/08/01 02:36:03;;;;;;;14.15;2.63;;;;;;;15.41;100.00;99026.41;5038223;28;20049;-66
2023/08/01 02:38:30;;;;;;;7.80;1.98;;;;;;;15.40;100.00;99037.06;5043121;28;20041;-66
2023/08/01 02:40:57;;;;;;;13.13;2.80;;;;;;;15.32;100.00;99035.91;5039707;28;20229;-66
2023/08/01 02:43:23;;;;;;;12.20;2.67;;;;;;;15.28;100.00;99028.38;5037610;28;20045;-66
2023/08/01 02:45:50;;;;;;;12.40;2.30;;;;;;;15.39;100.00;99044.16;5032442;28;20053;-67
2023/08/01 02:48:17;;;;;;;14.63;3.15;;;;;;;15.35;100.00;99043.56;5048263;28;20087;-66
2023/08/01 02:50:43;;;;;;;14.68;2.20;;;;;;;15.33;100.00;99036.75;5025324;28;20073;-66
2023/08/01 02:53:10;;;;;;;16.48;3.28;;;;;;;15.32;100.00;99037.72;5034633;28;20410;-66
2023/08/01 02:55:37;;;;;;;11.88;2.63;;;;;;;15.33;100.00;99042.03;5052372;28;20056;-67
2023/08/01 02:58:03;;;;;;;16.15;3.15;;;;;;;15.34;100.00;99043.69;5033071;28;20140;-66
2023/08/01 03:00:31;;;;;;;12.27;2.60;;;;;;;15.28;100.00;99049.47;5043006;28;20058;-66
2023/08/01 03:02:58;;;;;;;11.25;2.25;;;;;;;15.27;100.00;99037.28;5027960;28;20559;-67
2023/08/01 03:05:25;;;;;;;14.18;3.00;;;;;;;15.30;100.00;99047.56;5031654;28;20477;-66
2023/08/01 03:07:51;;;;;;;14.48;2.65;;;;;;;15.26;100.00;99057.50;5031587;28;20537;-66
2023/08/01 03:10:18;;;;;;;7.15;2.08;;;;;;;15.36;100.00;99063.69;5030191;28;20064;-66
2023/08/01 03:13:01;;;;;;;10.50;2.60;;;;;;;15.30;100.00;99066.84;5030837;28;20109;-66
2023/08/01 03:15:28;;;;;;;13.70;2.58;;;;;;;15.27;100.00;99059.19;5031969;28;20053;-66
2023/08/01 03:17:54;;;;;;;13.95;2.40;;;;;;;15.36;100.00;99073.41;5031445;28;20518;-66
2023/08/01 03:20:22;;;;;;;12.70;2.72;;;;;;;15.31;100.00;99065.06;5027689;28;20270;-66
2023/08/01 03:22:49;;;;;;;10.32;2.40;;;;;;;15.37;100.00;99073.28;5031280;28;20041;-66
2023/08/01 03:25:16;;;;;;;10.52;2.60;;;;;;;15.33;100.00;99074.53;5019301;28;20050;-67
2023/08/01 03:27:42;;;;;;;15.32;2.92;;;;;;;15.24;100.00;99072.63;5029663;28;20049;-66
2023/08/01 03:30:10;;;;;;;14.50;2.83;;;;;;;15.22;100.00;99073.72;5031043;28;20053;-67
2023/08/01 03:32:37;;;;;;;13.45;3.13;;;;;;;15.24;100.00;99083.19;5028295;28;20053;-67
2023/08/01 03:35:07;;;;;;;10.27;2.50;;;;;;;15.25;100.00;99086.66;5030060;28;20075;-68
2023/08/01 03:37:33;;;;;;;14.82;3.05;;;;;;;15.15;100.00;99087.41;5030490;28;20140;-66
2023/08/01 03:40:00;;;;;;;10.18;2.70;;;;;;;15.19;100.00;99088.00;5013764;28;20507;-66
2023/08/01 03:42:27;;;;;;;11.18;2.03;;;;;;;15.23;100.00;99089.44;5023837;28;20053;-66
2023/08/01 03:44:53;;;;;;;11.85;2.53;;;;;;;15.16;100.00;99094.38;5017783;28;20057;-67
2023/08/01 03:47:20;;;;;;;15.27;3.00;;;;;;;15.14;100.00;99100.75;5031479;28;20392;-66
2023/08/01 03:49:47;;;;;;;14.70;2.65;;;;;;;15.19;100.00;99104.66;5031301;28;20045;-66
2023/08/01 03:52:14;;;;;;;14.65;2.70;;;;;;;15.19;100.00;99107.31;5022291;28;20059;-66
2023/08/01 03:54:40;;;;;;;12.75;2.85;;;;;;;15.18;100.00;99110.06;5029712;28;20049;-67
2023/08/01 03:57:07;;;;;;;20.75;3.33;;;;;;;15.06;100.00;99113.72;5031346;28;20381;-66
2023/08/01 03:59:34;;;;;;;9.48;2.53;;;;;;;15.15;100.00;99115.56;5030867;28;20400;-66
2023/08/01 04:02:00;;;;;;;14.45;3.88;;;;;;;15.19;100.00;99123.13;5020293;28;20073;-67
2023/08/01 04:04:28;;;;;;;13.68;2.70;;;;;;;15.15;100.00;99123.50;5030674;28;20060;-66
2023/08/01 04:06:54;;;;;;;11.20;2.72;;;;;;;15.12;100.00;99123.72;5030358;28;20053;-67
2023/08/01 04:09:21;;;;;;;16.25;3.53;;;;;;;15.14;100.00;99121.84;5030204;28;20055;-69
2023/08/01 04:11:48;;;;;;;7.65;2.08;;;;;;;15.18;100.00;99123.25;5016784;28;20492;-66
2023/08/01 04:14:14;;;;;;;9.57;2.50;;;;;;;15.12;100.00;99123.72;5030570;28;20050;-67
2023/08/01 04:16:41;;;;;;;13.25;2.92;;;;;;;15.16;100.00;99115.47;5030928;28;20475;-66
2023/08/01 04:19:09;;;;;;;12.77;2.88;;;;;;;15.11;100.00;99124.72;5030930;28;20381;-66
2023/08/01 04:21:36;;;;;;;14.32;3.55;;;;;;;15.06;100.00;99126.88;5018177;28;20053;-67
2023/08/01 04:24:03;;;;;;;15.10;3.22;;;;;;;15.09;100.00;99131.91;5028573;28;20061;-66
2023/08/01 04:26:29;;;;;;;12.20;2.70;;;;;;;15.15;100.00;99129.59;5030235;28;20045;-66
2023/08/01 04:28:56;;;;;;;13.32;2.60;;;;;;;15.16;100.00;99136.53;5029504;28;20045;-67
2023/08/01 04:31:23;;;;;;;12.00;2.70;;;;;;;15.19;100.00;99140.72;5028670;28;20045;-66
2023/08/01 04:33:49;;;;;;;9.52;2.47;;;;;;;15.22;100.00;99129.94;5029686;28;20049;-66
2023/08/01 04:36:16;;;;;;;14.25;2.88;;;;;;;15.21;100.00;99144.09;5028934;28;20407;-67
2023/08/01 04:38:42;;;;;;;11.93;3.03;;;;;;;15.25;100.00;99155.22;5029992;28;20053;-66
2023/08/01 04:41:09;;;;;;;11.98;3.03;;;;;;;15.27;100.00;99148.00;5028972;28;20046;-66
2023/08/01 04:43:36;;;;;;;10.02;2.65;;;;;;;15.37;100.00;99147.13;5029897;28;20061;-67
2023/08/01 04:46:02;;;;;;;11.85;2.53;;;;;;;15.38;100.00;99143.50;5030203;28;20443;-67
2023/08/01 04:48:29;;;;;;;15.48;3.25;;;;;;;15.38;100.00;99135.59;5030117;28;20076;-66
2023/08/01 04:50:56;;;;;;;14.02;3.00;;;;;;;15.37;100.00;99141.84;5033019;28;20080;-66
2023/08/01 04:53:22;;;;;;;11.48;2.70;;;;;;;15.36;100.00;99144.63;5030085;28;20056;-67
2023/08/01 04:55:50;;;;;;;12.70;2.45;;;;;;;15.40;100.00;99137.28;5029844;28;20057;-66
2023/08/01 04:58:17;;;;;;;9.73;2.20;;;;;;;15.45;100.00;99141.19;5029149;28;20434;-66
2023/08/01 05:00:43;;;;;;;11.73;2.95;;;;;;;15.43;100.00;99147.59;5025261;28;20061;-67
2023/08/01 05:03:10;;;;;;;11.15;2.55;;;;;;;15.50;100.00;99146.09;5027634;28;20096;-67
2023/08/01 05:05:37;;;;;;;17.08;3.58;;;;;;;15.42;100.00;99145.91;5029567;28;20053;-66
2023/08/01 05:08:03;;;;;;;15.30;3.08;;;;;;;15.48;100.00;99150.69;5030566;28;20069;-67
2023/08/01 05:10:30;;;;;;;13.57;2.88;;;;;;;15.52;100.00;99146.81;5025749;28;20640;-66
2023/08/01 05:12:57;;;;;;;14.75;3.50;;;;;;;15.48;100.00;99140.97;5010737;28;20058;-66
2023/08/01 05:15:24;;;;;;;15.10;3.70;;;;;;;15.51;100.00;99147.75;5023838;28;20296;-66
2023/08/01 05:17:52;;;;;;;13.93;3.30;;;;;;;15.49;100.00;99149.69;5018968;28;20483;-66
2023/08/01 05:20:19;;;;;;;9.48;2.17;;;;;;;15.58;100.00;99151.56;5028292;28;20068;-66
2023/08/01 05:22:45;;;;;;;12.77;3.25;;;;;;;15.61;100.00;99155.75;5033444;28;20052;-66
2023/08/01 05:25:12;;;;;;;12.73;2.70;;;;;;;15.62;100.00;99165.34;5033767;28;20056;-67
2023/08/01 05:27:39;;;;;;;10.77;2.83;;;;;;;15.61;100.00;99166.31;5033920;28;20049;-66
2023/08/01 05:30:06;;;;;;;7.85;2.30;;;;;;;15.70;100.00;99170.81;5033162;28;20050;-67
2023/08/01 05:32:33;;;;;;;12.45;2.55;;;;;;;15.75;100.00;99163.38;5032739;28;20052;-67
2023/08/01 05:34:59;;;;;;;11.18;2.80;;;;;;;15.78;100.00;99175.50;5033085;28;20585;-67
2023/08/01 05:37:26;;;;;;;9.00;2.53;;;;;;;15.82;100.00;99174.25;5034542;28;20438;-67
2023/08/01 05:39:52;;;;;;;11.65;2.88;;;;;;;15.80;100.00;99181.47;5033456;28;20061;-67
2023/08/01 05:42:19;;;;;;;10.55;2.45;;;;;;;15.80;100.00;99182.31;5029955;28;20076;-65
2023/08/01 05:44:46;;;;;;;13.85;3.15;;;;;;;15.81;100.00;99186.63;5033573;28;20046;-65
2023/08/01 05:47:12;;;;;;;16.83;3.05;;;;;;;15.78;100.00;99178.97;5033010;28;20052;-65
2023/08/01 05:49:41;;;;;;;9.05;2.33;;;;;;;15.87;100.00;99188.75;5033488;28;20054;-65
2023/08/01 05:52:07;;;;;;;12.23;2.30;;;;;;;15.81;100.00;99201.59;5014985;28;20480;-66
2023/08/01 05:54:34;;;;;;;10.88;2.67;;;;;;;15.93;100.00;99195.28;5033708;28;20518;-66
2023/08/01 05:57:01;;;;;;;10.70;2.42;;;;;;;16.04;100.00;99199.66;5033698;28;20056;-66
2023/08/01 05:59:27;;;;;;;14.60;3.65;;;;;;;15.92;100.00;99207.66;5018639;28;20045;-65
2023/08/01 06:01:54;;;;;;;10.60;2.17;;;;;;;15.91;100.00;99211.25;5026750;28;20285;-65
2023/08/01 06:04:21;;;;;;;11.20;2.25;;;;;;;15.90;100.00;99208.75;5033276;28;20057;-65
2023/08/01 06:06:47;;;;;;;9.18;2.38;;;;;;;15.97;100.00;99217.00;5032593;28;20649;-65
2023/08/01 06:09:14;;;;;;;12.65;2.72;;;;;;;15.93;100.00;99213.78;5015944;28;20052;-67
2023/08/01 06:11:41;;;;;;;13.50;3.13;;;;;;;15.87;100.00;99219.59;5016643;28;20411;-66
2023/08/01 06:14:09;;;;;;;8.88;2.33;;;;;;;15.90;100.00;99208.75;5033361;28;20063;-66
2023/08/01 06:16:36;;;;;;;10.90;3.35;;;;;;;16.05;100.00;99219.84;5032172;28;20521;-66
2023/08/01 06:19:02;;;;;;;11.20;2.17;;;;;;;16.07;100.00;99213.44;5031736;28;20107;-66
2023/08/01 06:21:29;;;;;;;13.18;2.58;;;;;;;16.13;100.00;99214.75;5020469;28;20132;-66
2023/08/01 06:23:56;;;;;;;15.55;3.00;;;;;;;15.93;100.00;99208.50;5017791;28;20060;-66
2023/08/01 06:26:22;;;;;;;11.95;3.00;;;;;;;16.04;100.00;99216.38;5015279;28;20058;-66
2023/08/01 06:28:49;;;;;;;14.57;2.83;;;;;;;15.93;100.00;99217.25;5032700;28;20494;-66
2023/08/01 06:31:16;;;;;;;11.40;2.50;;;;;;;16.08;100.00;99217.75;5029677;28;20064;-65
2023/08/01 06:33:43;;;;;;;9.93;2.75;;;;;;;16.09;100.00;99226.50;5014000;28;20049;-65
2023/08/01 06:36:09;;;;;;;14.75;2.85;;;;;;;15.90;100.00;99214.03;5030661;28;20081;-66
2023/08/01 06:38:36;;;;;;;9.88;2.40;;;;;;;16.08;100.00;99228.31;5032289;28;20049;-66
2023/08/01 06:41:03;;;;;;;10.00;2.55;;;;;;;16.18;100.00;99224.91;5028206;28;20057;-66
2023/08/01 06:43:29;;;;;;;12.70;3.25;;;;;;;16.29;100.00;99233.59;5032782;28;20056;-66
2023/08/01 06:45:56;;;;;;;14.00;2.35;;;;;;;16.34;100.00;99235.81;5032783;28;20395;-65
2023/08/01 06:48:23;;;;;;;11.25;2.65;;;;;;;16.33;100.00;99224.44;5032259;28;20049;-65
2023/08/01 06:50:49;;;;;;;10.98;2.42;;;;;;;16.49;100.00;99234.50;5030692;28;20041;-66
2023/08/01 06:53:16;;;;;;;10.23;2.22;;;;;;;16.46;100.00;99234.78;5030362;28;20407;-66
2023/08/01 06:55:43;;;;;;;10.65;2.88;;;;;;;16.44;100.00;99242.00;5029586;28;20061;-65
2023/08/01 06:58:09;;;;;;;14.32;2.80;;;;;;;16.40;100.00;99240.59;5011715;28;20514;-66
2023/08/01 07:00:36;;;;;;;10.32;2.05;;;;;;;16.49;100.00;99237.16;5028440;28;20045;-66
2023/08/01 07:03:03;;;;;;;11.38;2.50;;;;;;;16.38;100.00;99241.69;5023247;28;20124;-65
2023/08/01 07:05:30;;;;;;;7.95;1.88;;;;;;;16.50;100.00;99244.13;5041954;28;20541;-65
2023/08/01 07:07:58;;;;;;;15.63;2.17;;;;;;;16.51;100.00;99237.03;5012465;28;20054;-65
2023/08/01 07:10:24;;;;;;;9.77;2.80;;;;;;;16.46;100.00;99242.69;5027534;28;20435;-65
2023/08/01 07:12:51;;;;;;;9.90;2.40;;;;;;;16.49;100.00;99238.97;5029916;28;20055;-65
2023/08/01 07:15:18;;;;;;;11.07;2.30;;;;;;;16.57;100.00;99243.59;5030019;28;20053;-65
2023/08/01 07:17:44;;;;;;;9.80;3.10;;;;;;;16.65;100.00;99234.03;5035360;28;20068;-66
2023/08/01 07:20:11;;;;;;;8.82;2.42;;;;;;;16.73;100.00;99254.50;5041925;28;20522;-66
2023/08/01 07:22:38;;;;;;;11.68;2.63;;;;;;;16.89;100.00;99249.59;5022638;28;20049;-65
2023/08/01 07:25:05;;;;;;;11.20;2.53;;;;;;;16.81;100.00;99249.38;5024425;28;20072;-66
2023/08/01 07:27:31;;;;;;;15.70;2.60;;;;;;;16.77;100.00;99258.56;5019094;28;20052;-65
2023/08/01 07:29:58;;;;;;;11.35;2.53;;;;;;;16.73;100.00;99261.59;5014288;28;20054;-65
2023/08/01 07:32:25;;;;;;;8.73;1.95;;;;;;;16.99;100.00;99262.00;5021500;28;20049;-66
2023/08/01 07:34:51;;;;;;;16.67;2.28;;;;;;;17.20;100.00;99264.56;5029475;28;20049;-67
2023/08/01 07:37:18;;;;;;;14.82;2.70;;;;;;;17.33;100.00;99259.81;5029110;28;20060;-66
2023/08/01 07:39:45;;;;;;;9.27;2.30;;;;;;;17.53;100.00;99273.94;5029988;28;20443;-66
2023/08/01 07:42:11;;;;;;;10.65;2.20;;;;;;;17.48;100.00;99267.41;5030042;28;20408;-66
2023/08/01 07:44:38;;;;;;;9.55;2.50;;;;;;;17.72;100.00;99270.44;5029474;28;20048;-65
2023/08/01 07:47:05;;;;;;;10.63;2.50;;;;;;;18.03;100.00;99280.94;5031116;28;20064;-67
2023/08/01 07:49:31;;;;;;;10.93;2.50;;;;;;;18.20;100.00;99280.22;5030519;28;20057;-67
2023/08/01 07:51:58;;;;;;;11.57;2.10;;;;;;;18.50;100.00;99288.06;5029073;28;20064;-67
2023/08/01 07:54:25;;;;;;;9.88;1.70;;;;;;;18.73;100.00;99285.91;5029825;28;20404;-67
2023/08/01 07:56:51;;;;;;;14.57;2.33;;;;;;;19.17;100.00;99288.81;5030221;28;20049;-67
2023/08/01 07:59:18;;;;;;;8.50;2.67;;;;;;;19.22;100.00;99289.19;5029575;28;20064;-66
2023/08/01 08:01:44;;;;;;;7.95;1.60;;;;;;;19.48;100.00;99289.31;5028482;28;20045;-67
2023/08/01 08:04:11;;;;;;;10.82;1.98;;;;;;;19.75;100.00;99294.75;5011904;28;20265;-67
2023/08/01 08:06:38;;;;;;;7.10;1.73;;;;;;;19.89;100.00;99294.22;5028620;28;20053;-67
2023/08/01 08:09:05;;;;;;;8.60;1.80;;;;;;;20.04;100.00;99300.66;5028330;28;20472;-66
2023/08/01 08:11:33;;;;;;;9.05;1.73;;;;;;;19.99;100.00;99294.13;5026978;28;20054;-66
2023/08/01 08:14:00;;;;;;;8.73;1.83;;;;;;;20.29;100.00;99307.00;5028209;28;20056;-66
2023/08/01 08:16:26;;;;;;;14.07;2.33;;;;;;;20.23;100.00;99312.91;5028163;28;20041;-66
2023/08/01 08:18:53;;;;;;;7.10;1.60;;;;;;;20.43;100.00;99316.22;5028886;28;20059;-67
2023/08/01 08:21:20;;;;;;;9.95;1.98;;;;;;;20.81;100.00;99310.66;5026818;28;20052;-67
2023/08/01 08:23:47;;;;;;;5.25;1.63;;;;;;;20.77;100.00;99302.16;5027573;28;20060;-66
2023/08/01 08:26:13;;;;;;;8.65;2.15;;;;;;;20.85;100.00;99317.31;5030093;28;20053;-67
2023/08/01 08:28:41;;;;;;;6.90;1.80;;;;;;;20.81;100.00;99315.97;5036449;28;20044;-67
2023/08/01 08:31:08;;;;;;;8.75;1.80;;;;;;;21.04;100.00;99310.94;5023187;28;20050;-68
2023/08/01 08:33:36;;;;;;;6.47;1.73;;;;;;;20.38;100.00;99322.97;5026873;28;20061;-66
2023/08/01 08:36:03;;;;;;;6.47;1.60;;;;;;;20.23;100.00;99328.03;5030664;28;20059;-69
2023/08/01 08:38:29;;;;;;;8.93;1.92;;;;;;;20.20;100.00;99320.34;5030003;28;20476;-69
2023/08/01 08:41:09;;;;;;;5.07;1.20;;;;;;;20.04;100.00;99318.41;5030654;28;20049;-70
2023/08/01 08:43:37;;;;;;;8.77;1.92;;;;;;;20.24;100.00;99319.91;5036290;28;20053;-70
2023/08/01 08:46:05;;;;;;;9.75;1.73;;;;;;;20.17;100.00;99315.34;5042395;28;20215;-70
2023/08/01 08:48:33;;;;;;;5.63;1.55;;;;;;;20.60;100.00;99313.66;5028598;28;20049;-69
2023/08/01 08:51:01;;;;;;;8.43;1.70;;;;;;;20.78;100.00;99308.31;5027848;28;20521;-71
2023/08/01 08:53:30;;;;;;;7.90;1.80;;;;;;;20.40;100.00;99327.16;5028724;28;20132;-70
2023/08/01 08:55:58;;;;;;;9.13;1.60;;;;;;;20.67;100.00;99322.72;5028357;28;20499;-68
2023/08/01 08:58:30;;;;;;;7.22;1.60;;;;;;;20.48;100.00;99310.44;5029242;28;20049;-69
2023/08/01 09:01:00;;;;;;;7.93;1.75;;;;;;;20.70;100.00;99306.44;5024822;28;20140;-67
2023/08/01 09:03:28;;;;;;;8.80;1.50;;;;;;;20.32;100.00;99311.16;5029515;28;20487;-69
2023/08/01 09:06:03;;;;;;;7.13;1.67;;;;;;;20.35;100.00;99310.03;5030142;28;20058;-71
2023/08/01 09:08:36;;;;;;;7.63;1.63;;;;;;;20.42;100.00;99317.22;5028668;28;20049;-70
2023/08/01 09:11:04;;;;;;;9.13;1.40;;;;;;;20.55;100.00;99308.81;5027318;28;20057;-70
2023/08/01 09:13:32;;;;;;;6.07;1.60;;;;;;;20.34;100.00;99316.31;5027462;28;20056;-70
2023/08/01 09:16:02;;;;;;;8.20;1.83;;;;;;;19.65;100.00;99290.31;5019814;28;20061;-70
2023/08/01 09:18:29;;;;;;;11.18;2.38;;;;;;;19.94;100.00;99297.25;5028496;28;20104;-70
2023/08/01 09:21:02;;;;;;;6.65;2.40;;;;;;;19.92;100.00;99315.16;5026025;28;20053;-70
2023/08/01 09:23:30;;;;;;;9.05;2.40;;;;;;;19.90;100.00;99303.84;5026452;28;20454;-71
2023/08/01 09:25:57;;;;;;;10.02;2.58;;;;;;;20.01;100.00;99316.03;5028073;28;20045;-71
2023/08/01 09:28:26;;;;;;;6.32;1.92;;;;;;;19.86;100.00;99310.44;5026793;28;20045;-70
2023/08/01 09:30:55;;;;;;;9.93;2.70;;;;;;;20.40;100.00;99321.84;5025942;28;20147;-70
2023/08/01 09:33:22;;;;;;;8.90;2.35;;;;;;;20.21;100.00;99316.72;5037741;28;20063;-70
2023/08/01 09:35:51;;;;;;;8.38;2.35;;;;;;;20.21;100.00;99322.88;5039843;28;20456;-70
2023/08/01 09:38:20;;;;;;;8.20;2.05;;;;;;;20.12;100.00;99312.34;5007207;28;20045;-69
2023/08/01 09:40:47;;;;;;;6.82;1.90;;;;;;;20.16;100.00;99313.69;5024454;28;20407;-70
2023/08/01 09:43:13;;;;;;;7.10;2.20;;;;;;;20.32;100.00;99326.28;5022280;28;20079;-70
2023/08/01 09:45:53;;;;;;;8.98;1.70;;;;;;;20.10;100.00;99325.78;5025384;28;20537;-70
2023/08/01 09:48:25;;;;;;;5.90;1.52;;;;;;;19.89;100.00;99323.44;5025465;28;20568;-71
2023/08/01 09:51:07;;;;;;;5.28;1.73;;;;;;;20.13;100.00;99314.00;5025432;28;20484;-68
2023/08/01 09:53:34;;;;;;;8.55;2.10;;;;;;;20.28;100.00;99318.59;5014843;28;20056;-69
2023/08/01 09:56:01;;;;;;;6.57;1.40;;;;;;;20.44;100.00;99320.53;5025975;28;20049;-71
2023/08/01 09:58:36;;;;;;;6.22;1.50;;;;;;;20.14;100.00;99316.50;5028991;28;20438;-68
2023/08/01 10:01:03;;;;;;;6.95;1.63;;;;;;;20.04;100.00;99311.28;5025191;28;20424;-68
2023/08/01 10:03:31;;;;;;;5.95;1.30;;;;;;;20.33;100.00;99325.25;5029161;28;20068;-69
2023/08/01 10:05:59;;;;;;;4.63;1.30;;;;;;;20.13;100.00;99311.34;5027883;28;20076;-68
2023/08/01 10:08:46;;;;;;;6.65;1.67;;;;;;;20.70;100.00;99316.22;5029967;28;20049;-68
2023/08/01 10:11:19;;;;;;;5.75;1.45;;;;;;;20.33;100.00;99328.78;5021363;28;20092;-68
2023/08/01 10:13:46;;;;;;;5.65;1.52;;;;;;;20.57;100.00;99324.59;5022277;28;20052;-68
2023/08/01 10:16:15;;;;;;;8.60;1.60;;;;;;;20.30;100.00;99337.88;5029902;28;20041;-68
2023/08/01 10:18:43;;;;;;;7.85;1.55;;;;;;;20.13;100.00;99338.72;5030295;28;20515;-68
2023/08/01 10:21:17;;;;;;;6.13;1.75;;;;;;;20.30;100.00;99345.84;5027425;28;20088;-69
2023/08/01 10:23:46;;;;;;;7.30;1.88;;;;;;;19.97;100.00;99317.34;5012505;28;20050;-68
2023/08/01 10:26:13;;;;;;;8.07;1.58;;;;;;;20.28;100.00;99347.84;5029734;28;20053;-70
2023/08/01 10:28:49;;;;;;;7.13;1.67;;;;;;;20.65;100.00;99343.31;5030251;28;20092;-69
2023/08/01 10:31:18;;;;;;;7.53;2.10;;;;;;;20.56;100.00;99341.56;5016790;28;20433;-70
2023/08/01 10:33:47;;;;;;;8.98;2.92;;;;;;;20.25;100.00;99347.31;5045170;28;20053;-69
2023/08/01 10:36:31;;;;;;;7.25;2.50;;;;;;;20.34;100.00;99340.22;5027622;28;20072;-69
2023/08/01 10:39:01;;;;;;;8.45;2.30;;;;;;;20.43;100.00;99345.47;5003726;28;20056;-70
2023/08/01 10:41:32;;;;;;;7.00;1.92;;;;;;;20.59;100.00;99347.41;5037528;28;20398;-70
2023/08/01 10:44:08;;;;;;;5.13;1.70;;;;;;;20.54;100.00;99346.19;5045292;28;20048;-70
2023/08/01 10:47:00;;;;;;;5.50;1.33;;;;;;;20.28;100.00;99353.16;5032859;28;20061;-70
2023/08/01 10:49:40;;;;;;;6.60;1.80;;;;;;;20.57;100.00;99345.88;5036279;28;20403;-69
2023/08/01 10:52:26;;;;;;;3.65;1.17;;;;;;;20.65;100.00;99345.97;5027826;28;20077;-69
2023/08/01 10:55:00;;;;;;;5.55;1.48;;;;;;;20.26;100.00;99352.47;5039491;28;20049;-70
2023/08/01 10:57:37;;;;;;;8.45;1.70;;;;;;;20.51;100.00;99350.00;5035415;28;20046;-66
2023/08/01 11:00:09;;;;;;;6.65;1.70;;;;;;;20.59;100.00;99344.75;5030375;28;20419;-66
2023/08/01 11:02:45;;;;;;;4.78;1.30;;;;;;;20.53;100.00;99344.53;5014414;28;20060;-66
2023/08/01 11:05:12;;;;;;;7.00;2.00;;;;;;;20.44;100.00;99333.84;5031961;28;20068;-66
2023/08/01 11:07:39;;;;;;;5.55;1.30;;;;;;;20.24;100.00;99329.72;5030858;28;20045;-64
2023/08/01 11:10:07;;;;;;;6.88;1.60;;;;;;;20.32;100.00;99339.56;5015355;28;20048;-63
2023/08/01 11:12:42;;;;;;;7.15;1.58;;;;;;;20.25;100.00;99345.47;5022009;28;20064;-65
2023/08/01 11:15:11;;;;;;;7.53;1.77;;;;;;;20.18;100.00;99349.75;5031852;28;20056;-65
2023/08/01 11:17:46;;;;;;;4.05;1.00;;;;;;;20.42;100.00;99346.44;5035365;28;20042;-64
2023/08/01 11:20:14;;;;;;;6.40;1.40;;;;;;;20.46;100.00;99344.31;5023105;28;20041;-64
2023/08/01 11:22:53;;;;;;;6.40;1.50;;;;;;;20.74;100.00;99344.22;5007017;28;20423;-64
2023/08/01 11:25:35;;;;;;;9.18;1.40;;;;;;;20.70;100.00;99332.19;5036156;28;20060;-64